KVEL/VEL METAR and TAF weather

Enter ICAO airport designator
Station Type Date Time Source
KVEL METAR 2022/01/27 22:53 UTC NOAA

KVEL 272253Z AUTO 05014G24KT 10SM CLR 00/M11 A3046 RMK AO2 SLP356 T00001106


Station Type Date Time Source
KVEL Decoded METAR 2022/01/27 22:53 UTC NOAA

VERNAL AIRPORT, UT, United States (KVEL) 40-26N 109-30W 1604M
Jan 27, 2022 - 05:53 PM EST / 2022.01.27 2253 UTC
Wind: from the NE (050 degrees) at 16 MPH (14 KT) gusting to 28 MPH (24 KT):0
Visibility: 10 mile(s):0
Sky conditions: clear
Temperature: 32.0 F (0.0 C)
Windchill: 21 F (-6 C):1
Dew Point: 12.9 F (-10.6 C)
Relative Humidity: 44%
Pressure (altimeter): 30.46 in. Hg (1031 hPa)
ob: KVEL 272253Z AUTO 05014G24KT 10SM CLR 00/M11 A3046 RMK AO2 SLP356 T00001106
cycle: 23

Station Type Date Time Source
KVEL TAF 2022/01/27 18:40 UTC NOAA

TAF KVEL 271737Z 2718/2818 01015G25KT P6SM BKN080
FM280000 32004KT P6SM FEW080

Example: see airport list